sensor_id;sensor_type;location;lat;lon;timestamp;P1;durP1;ratioP1;P2;durP2;ratioP2
25435;SDS011;13363;52.772;-3.890;2023-07-13T00:00:41;6.80;;;3.23;;
25435;SDS011;13363;52.772;-3.890;2023-07-13T00:03:07;11.80;;;3.30;;
25435;SDS011;13363;52.772;-3.890;2023-07-13T00:05:33;13.63;;;4.10;;
25435;SDS011;13363;52.772;-3.890;2023-07-13T00:08:00;16.40;;;3.93;;
25435;SDS011;13363;52.772;-3.890;2023-07-13T00:10:26;10.77;;;4.10;;
25435;SDS011;13363;52.772;-3.890;2023-07-13T00:12:52;13.87;;;3.53;;
25435;SDS011;13363;52.772;-3.890;2023-07-13T00:15:21;10.93;;;3.37;;
25435;SDS011;13363;52.772;-3.890;2023-07-13T00:17:49;10.10;;;3.63;;
25435;SDS011;13363;52.772;-3.890;2023-07-13T00:20:16;9.03;;;3.37;;
25435;SDS011;13363;52.772;-3.890;2023-07-13T00:22:42;9.83;;;3.10;;
25435;SDS011;13363;52.772;-3.890;2023-07-13T00:25:11;8.87;;;3.20;;
25435;SDS011;13363;52.772;-3.890;2023-07-13T00:27:37;9.37;;;3.50;;
25435;SDS011;13363;52.772;-3.890;2023-07-13T00:30:03;10.73;;;3.07;;
25435;SDS011;13363;52.772;-3.890;2023-07-13T00:32:30;6.33;;;3.03;;
25435;SDS011;13363;52.772;-3.890;2023-07-13T00:34:56;5.07;;;2.63;;
25435;SDS011;13363;52.772;-3.890;2023-07-13T00:37:23;8.13;;;3.13;;
25435;SDS011;13363;52.772;-3.890;2023-07-13T00:39:49;5.00;;;2.83;;
25435;SDS011;13363;52.772;-3.890;2023-07-13T00:42:15;9.03;;;3.30;;
25435;SDS011;13363;52.772;-3.890;2023-07-13T00:44:41;12.03;;;3.43;;
25435;SDS011;13363;52.772;-3.890;2023-07-13T00:47:25;9.50;;;3.10;;
25435;SDS011;13363;52.772;-3.890;2023-07-13T00:49:51;8.47;;;2.90;;
25435;SDS011;13363;52.772;-3.890;2023-07-13T00:52:17;10.90;;;3.30;;
25435;SDS011;13363;52.772;-3.890;2023-07-13T00:54:43;8.60;;;3.10;;
25435;SDS011;13363;52.772;-3.890;2023-07-13T00:57:12;7.17;;;2.80;;
25435;SDS011;13363;52.772;-3.890;2023-07-13T00:59:46;3.53;;;2.67;;
25435;SDS011;13363;52.772;-3.890;2023-07-13T01:02:16;8.83;;;3.03;;
25435;SDS011;13363;52.772;-3.890;2023-07-13T01:04:42;7.07;;;2.93;;
25435;SDS011;13363;52.772;-3.890;2023-07-13T01:07:09;4.27;;;2.90;;
25435;SDS011;13363;52.772;-3.890;2023-07-13T01:09:36;7.43;;;2.80;;
25435;SDS011;13363;52.772;-3.890;2023-07-13T01:12:02;7.37;;;2.90;;
25435;SDS011;13363;52.772;-3.890;2023-07-13T01:14:29;6.40;;;2.90;;
25435;SDS011;13363;52.772;-3.890;2023-07-13T01:16:55;9.47;;;2.87;;
25435;SDS011;13363;52.772;-3.890;2023-07-13T01:22:13;9.30;;;3.40;;
25435;SDS011;13363;52.772;-3.890;2023-07-13T01:24:43;8.00;;;3.53;;
25435;SDS011;13363;52.772;-3.890;2023-07-13T01:27:11;3.50;;;2.70;;
25435;SDS011;13363;52.772;-3.890;2023-07-13T01:29:39;7.37;;;3.03;;
25435;SDS011;13363;52.772;-3.890;2023-07-13T01:32:10;3.50;;;2.70;;
25435;SDS011;13363;52.772;-3.890;2023-07-13T01:34:37;12.93;;;3.13;;
25435;SDS011;13363;52.772;-3.890;2023-07-13T01:37:04;4.80;;;3.07;;
25435;SDS011;13363;52.772;-3.890;2023-07-13T01:39:30;6.37;;;3.13;;
25435;SDS011;13363;52.772;-3.890;2023-07-13T01:41:57;4.97;;;2.73;;
25435;SDS011;13363;52.772;-3.890;2023-07-13T01:44:22;5.57;;;3.10;;
25435;SDS011;13363;52.772;-3.890;2023-07-13T01:46:49;4.83;;;2.77;;
25435;SDS011;13363;52.772;-3.890;2023-07-13T01:49:15;9.37;;;2.83;;
25435;SDS011;13363;52.772;-3.890;2023-07-13T01:51:41;5.03;;;2.90;;
25435;SDS011;13363;52.772;-3.890;2023-07-13T01:54:07;5.03;;;2.87;;
25435;SDS011;13363;52.772;-3.890;2023-07-13T01:56:33;7.13;;;2.67;;
25435;SDS011;13363;52.772;-3.890;2023-07-13T01:58:59;5.13;;;2.97;;
25435;SDS011;13363;52.772;-3.890;2023-07-13T02:01:25;4.33;;;2.90;;
25435;SDS011;13363;52.772;-3.890;2023-07-13T02:03:50;5.17;;;2.60;;
25435;SDS011;13363;52.772;-3.890;2023-07-13T02:06:16;7.07;;;2.90;;
25435;SDS011;13363;52.772;-3.890;2023-07-13T02:08:42;6.43;;;2.80;;
25435;SDS011;13363;52.772;-3.890;2023-07-13T02:11:08;14.23;;;3.17;;
25435;SDS011;13363;52.772;-3.890;2023-07-13T02:13:34;4.57;;;2.63;;
25435;SDS011;13363;52.772;-3.890;2023-07-13T02:16:00;7.30;;;3.00;;
25435;SDS011;13363;52.772;-3.890;2023-07-13T02:18:26;7.07;;;3.30;;
25435;SDS011;13363;52.772;-3.890;2023-07-13T02:20:52;6.07;;;2.80;;
25435;SDS011;13363;52.772;-3.890;2023-07-13T02:23:18;7.87;;;2.53;;
25435;SDS011;13363;52.772;-3.890;2023-07-13T02:25:44;6.17;;;2.93;;
25435;SDS011;13363;52.772;-3.890;2023-07-13T02:28:10;3.63;;;2.57;;
25435;SDS011;13363;52.772;-3.890;2023-07-13T02:30:36;4.73;;;2.80;;
25435;SDS011;13363;52.772;-3.890;2023-07-13T02:33:03;6.40;;;2.57;;
25435;SDS011;13363;52.772;-3.890;2023-07-13T02:35:29;6.90;;;2.77;;
25435;SDS011;13363;52.772;-3.890;2023-07-13T02:37:55;5.57;;;3.07;;
25435;SDS011;13363;52.772;-3.890;2023-07-13T02:40:21;6.57;;;2.70;;
25435;SDS011;13363;52.772;-3.890;2023-07-13T02:42:48;6.93;;;2.40;;
25435;SDS011;13363;52.772;-3.890;2023-07-13T02:45:13;10.83;;;2.50;;
25435;SDS011;13363;52.772;-3.890;2023-07-13T02:47:40;7.30;;;2.70;;
25435;SDS011;13363;52.772;-3.890;2023-07-13T02:50:06;9.97;;;2.53;;
25435;SDS011;13363;52.772;-3.890;2023-07-13T02:52:33;8.60;;;2.40;;
25435;SDS011;13363;52.772;-3.890;2023-07-13T02:54:59;2.83;;;1.93;;
25435;SDS011;13363;52.772;-3.890;2023-07-13T02:57:25;3.90;;;2.20;;
25435;SDS011;13363;52.772;-3.890;2023-07-13T02:59:52;3.97;;;2.03;;
25435;SDS011;13363;52.772;-3.890;2023-07-13T03:02:18;6.23;;;2.03;;
25435;SDS011;13363;52.772;-3.890;2023-07-13T03:04:44;11.70;;;2.67;;
25435;SDS011;13363;52.772;-3.890;2023-07-13T03:07:10;3.50;;;1.90;;
25435;SDS011;13363;52.772;-3.890;2023-07-13T03:09:36;3.30;;;1.90;;
25435;SDS011;13363;52.772;-3.890;2023-07-13T03:12:02;5.87;;;1.90;;
25435;SDS011;13363;52.772;-3.890;2023-07-13T03:14:28;3.37;;;2.03;;
25435;SDS011;13363;52.772;-3.890;2023-07-13T03:16:54;3.70;;;1.73;;
25435;SDS011;13363;52.772;-3.890;2023-07-13T03:19:20;2.60;;;1.77;;
25435;SDS011;13363;52.772;-3.890;2023-07-13T03:21:46;4.20;;;1.70;;
25435;SDS011;13363;52.772;-3.890;2023-07-13T03:24:12;6.97;;;1.80;;
25435;SDS011;13363;52.772;-3.890;2023-07-13T03:26:38;4.77;;;2.20;;
25435;SDS011;13363;52.772;-3.890;2023-07-13T03:29:04;3.80;;;1.60;;
25435;SDS011;13363;52.772;-3.890;2023-07-13T03:31:33;2.37;;;1.67;;
25435;SDS011;13363;52.772;-3.890;2023-07-13T03:34:00;1.87;;;1.53;;
25435;SDS011;13363;52.772;-3.890;2023-07-13T03:36:27;3.77;;;1.50;;
25435;SDS011;13363;52.772;-3.890;2023-07-13T03:38:56;5.17;;;1.90;;
25435;SDS011;13363;52.772;-3.890;2023-07-13T03:41:23;6.13;;;1.77;;
25435;SDS011;13363;52.772;-3.890;2023-07-13T03:43:50;5.73;;;1.57;;
25435;SDS011;13363;52.772;-3.890;2023-07-13T03:46:17;6.40;;;1.70;;
25435;SDS011;13363;52.772;-3.890;2023-07-13T03:48:44;10.23;;;2.50;;
25435;SDS011;13363;52.772;-3.890;2023-07-13T03:51:12;5.73;;;2.10;;
25435;SDS011;13363;52.772;-3.890;2023-07-13T03:53:43;1.97;;;1.60;;
25435;SDS011;13363;52.772;-3.890;2023-07-13T03:56:10;4.30;;;1.90;;
25435;SDS011;13363;52.772;-3.890;2023-07-13T03:58:38;2.27;;;1.70;;
25435;SDS011;13363;52.772;-3.890;2023-07-13T04:01:05;6.00;;;1.60;;
25435;SDS011;13363;52.772;-3.890;2023-07-13T04:03:32;2.13;;;1.93;;
25435;SDS011;13363;52.772;-3.890;2023-07-13T04:06:00;3.80;;;1.70;;
25435;SDS011;13363;52.772;-3.890;2023-07-13T04:08:27;3.00;;;1.70;;
25435;SDS011;13363;52.772;-3.890;2023-07-13T04:10:55;3.33;;;1.97;;
25435;SDS011;13363;52.772;-3.890;2023-07-13T04:13:21;5.13;;;1.97;;
25435;SDS011;13363;52.772;-3.890;2023-07-13T04:15:48;3.60;;;1.93;;
25435;SDS011;13363;52.772;-3.890;2023-07-13T04:18:14;3.53;;;1.80;;
25435;SDS011;13363;52.772;-3.890;2023-07-13T04:20:40;2.03;;;1.87;;
25435;SDS011;13363;52.772;-3.890;2023-07-13T04:23:06;2.03;;;1.80;;
25435;SDS011;13363;52.772;-3.890;2023-07-13T04:25:32;2.70;;;1.70;;
25435;SDS011;13363;52.772;-3.890;2023-07-13T04:27:58;2.07;;;1.80;;
25435;SDS011;13363;52.772;-3.890;2023-07-13T04:30:24;2.30;;;1.97;;
25435;SDS011;13363;52.772;-3.890;2023-07-13T04:32:51;2.93;;;1.73;;
25435;SDS011;13363;52.772;-3.890;2023-07-13T04:35:18;2.83;;;1.70;;
25435;SDS011;13363;52.772;-3.890;2023-07-13T04:37:48;1.80;;;1.50;;
25435;SDS011;13363;52.772;-3.890;2023-07-13T04:40:16;3.13;;;1.80;;
25435;SDS011;13363;52.772;-3.890;2023-07-13T04:42:42;2.13;;;1.70;;
25435;SDS011;13363;52.772;-3.890;2023-07-13T04:45:09;5.20;;;2.00;;
25435;SDS011;13363;52.772;-3.890;2023-07-13T04:47:35;2.40;;;2.20;;
25435;SDS011;13363;52.772;-3.890;2023-07-13T04:50:01;3.57;;;1.93;;
25435;SDS011;13363;52.772;-3.890;2023-07-13T04:52:28;2.20;;;2.00;;
25435;SDS011;13363;52.772;-3.890;2023-07-13T04:54:54;4.83;;;2.20;;
25435;SDS011;13363;52.772;-3.890;2023-07-13T04:57:20;4.63;;;2.00;;
25435;SDS011;13363;52.772;-3.890;2023-07-13T04:59:46;3.47;;;2.23;;
25435;SDS011;13363;52.772;-3.890;2023-07-13T05:02:12;2.37;;;1.93;;
25435;SDS011;13363;52.772;-3.890;2023-07-13T05:04:38;2.47;;;2.23;;
25435;SDS011;13363;52.772;-3.890;2023-07-13T05:07:04;4.43;;;1.90;;
25435;SDS011;13363;52.772;-3.890;2023-07-13T05:09:31;3.47;;;2.03;;
25435;SDS011;13363;52.772;-3.890;2023-07-13T05:11:57;2.23;;;1.80;;
25435;SDS011;13363;52.772;-3.890;2023-07-13T05:14:23;4.13;;;2.70;;
25435;SDS011;13363;52.772;-3.890;2023-07-13T05:16:49;3.53;;;2.07;;
25435;SDS011;13363;52.772;-3.890;2023-07-13T05:19:15;4.03;;;2.20;;
25435;SDS011;13363;52.772;-3.890;2023-07-13T05:21:41;3.73;;;1.93;;
25435;SDS011;13363;52.772;-3.890;2023-07-13T05:24:07;2.80;;;1.70;;
25435;SDS011;13363;52.772;-3.890;2023-07-13T05:26:33;4.03;;;1.63;;
25435;SDS011;13363;52.772;-3.890;2023-07-13T05:28:58;2.57;;;1.77;;
25435;SDS011;13363;52.772;-3.890;2023-07-13T05:31:25;2.90;;;1.90;;
25435;SDS011;13363;52.772;-3.890;2023-07-13T05:33:51;5.50;;;2.17;;
25435;SDS011;13363;52.772;-3.890;2023-07-13T05:36:17;2.23;;;1.63;;
25435;SDS011;13363;52.772;-3.890;2023-07-13T05:38:42;1.83;;;1.57;;
25435;SDS011;13363;52.772;-3.890;2023-07-13T05:41:08;2.90;;;2.00;;
25435;SDS011;13363;52.772;-3.890;2023-07-13T05:43:34;2.07;;;1.90;;
25435;SDS011;13363;52.772;-3.890;2023-07-13T05:46:00;3.67;;;1.90;;
25435;SDS011;13363;52.772;-3.890;2023-07-13T05:48:26;3.87;;;1.97;;
25435;SDS011;13363;52.772;-3.890;2023-07-13T05:50:52;3.10;;;1.60;;
25435;SDS011;13363;52.772;-3.890;2023-07-13T05:53:18;4.97;;;2.37;;
25435;SDS011;13363;52.772;-3.890;2023-07-13T05:55:44;4.27;;;2.40;;
25435;SDS011;13363;52.772;-3.890;2023-07-13T05:58:18;2.03;;;1.83;;
25435;SDS011;13363;52.772;-3.890;2023-07-13T06:00:44;2.53;;;1.70;;
25435;SDS011;13363;52.772;-3.890;2023-07-13T06:03:11;5.07;;;1.60;;
25435;SDS011;13363;52.772;-3.890;2023-07-13T06:05:37;4.40;;;1.50;;
25435;SDS011;13363;52.772;-3.890;2023-07-13T06:08:04;1.90;;;1.70;;
25435;SDS011;13363;52.772;-3.890;2023-07-13T06:10:34;2.87;;;2.00;;
25435;SDS011;13363;52.772;-3.890;2023-07-13T06:13:01;4.77;;;1.60;;
25435;SDS011;13363;52.772;-3.890;2023-07-13T06:15:27;1.77;;;1.63;;
25435;SDS011;13363;52.772;-3.890;2023-07-13T06:17:53;3.67;;;2.17;;
25435;SDS011;13363;52.772;-3.890;2023-07-13T06:20:19;3.77;;;2.00;;
25435;SDS011;13363;52.772;-3.890;2023-07-13T06:22:45;1.63;;;1.53;;
25435;SDS011;13363;52.772;-3.890;2023-07-13T06:25:11;2.43;;;1.70;;
25435;SDS011;13363;52.772;-3.890;2023-07-13T06:27:36;3.47;;;1.43;;
25435;SDS011;13363;52.772;-3.890;2023-07-13T06:30:02;6.67;;;1.90;;
25435;SDS011;13363;52.772;-3.890;2023-07-13T06:32:28;2.67;;;1.93;;
25435;SDS011;13363;52.772;-3.890;2023-07-13T06:34:54;2.23;;;1.80;;
25435;SDS011;13363;52.772;-3.890;2023-07-13T06:37:20;1.73;;;1.60;;
25435;SDS011;13363;52.772;-3.890;2023-07-13T06:39:46;3.43;;;1.93;;
25435;SDS011;13363;52.772;-3.890;2023-07-13T06:42:12;2.43;;;1.57;;
25435;SDS011;13363;52.772;-3.890;2023-07-13T06:44:38;2.83;;;1.53;;
25435;SDS011;13363;52.772;-3.890;2023-07-13T06:47:04;1.90;;;1.43;;
25435;SDS011;13363;52.772;-3.890;2023-07-13T06:49:30;3.00;;;1.80;;
25435;SDS011;13363;52.772;-3.890;2023-07-13T06:51:56;4.10;;;1.90;;
25435;SDS011;13363;52.772;-3.890;2023-07-13T06:54:22;2.20;;;1.70;;
25435;SDS011;13363;52.772;-3.890;2023-07-13T06:56:48;1.83;;;1.73;;
25435;SDS011;13363;52.772;-3.890;2023-07-13T06:59:14;1.60;;;1.37;;
25435;SDS011;13363;52.772;-3.890;2023-07-13T07:01:39;3.10;;;2.07;;
25435;SDS011;13363;52.772;-3.890;2023-07-13T07:04:05;1.90;;;1.63;;
25435;SDS011;13363;52.772;-3.890;2023-07-13T07:06:31;1.90;;;1.70;;
25435;SDS011;13363;52.772;-3.890;2023-07-13T07:08:57;1.53;;;1.43;;
25435;SDS011;13363;52.772;-3.890;2023-07-13T07:11:24;6.57;;;1.60;;
25435;SDS011;13363;52.772;-3.890;2023-07-13T07:13:51;1.37;;;1.20;;
25435;SDS011;13363;52.772;-3.890;2023-07-13T07:16:18;1.83;;;1.40;;
25435;SDS011;13363;52.772;-3.890;2023-07-13T07:18:45;1.27;;;1.27;;
25435;SDS011;13363;52.772;-3.890;2023-07-13T07:21:12;1.73;;;1.63;;
25435;SDS011;13363;52.772;-3.890;2023-07-13T07:23:39;4.32;;;1.52;;
25435;SDS011;13363;52.772;-3.890;2023-07-13T07:26:05;2.22;;;1.20;;
25435;SDS011;13363;52.772;-3.890;2023-07-13T07:28:33;2.42;;;1.45;;
25435;SDS011;13363;52.772;-3.890;2023-07-13T07:30:59;1.17;;;0.93;;
25435;SDS011;13363;52.772;-3.890;2023-07-13T07:33:25;1.40;;;1.15;;
25435;SDS011;13363;52.772;-3.890;2023-07-13T07:35:51;1.05;;;0.93;;
25435;SDS011;13363;52.772;-3.890;2023-07-13T07:38:20;1.10;;;1.08;;
25435;SDS011;13363;52.772;-3.890;2023-07-13T07:40:46;3.33;;;1.30;;
25435;SDS011;13363;52.772;-3.890;2023-07-13T07:43:12;1.20;;;1.10;;
25435;SDS011;13363;52.772;-3.890;2023-07-13T07:45:39;2.70;;;1.27;;
25435;SDS011;13363;52.772;-3.890;2023-07-13T07:48:05;4.97;;;1.25;;
25435;SDS011;13363;52.772;-3.890;2023-07-13T07:50:32;2.45;;;1.02;;
25435;SDS011;13363;52.772;-3.890;2023-07-13T07:52:58;2.42;;;1.00;;
25435;SDS011;13363;52.772;-3.890;2023-07-13T07:55:24;5.03;;;1.20;;
25435;SDS011;13363;52.772;-3.890;2023-07-13T07:57:54;2.15;;;1.38;;
25435;SDS011;13363;52.772;-3.890;2023-07-13T08:00:21;7.70;;;1.80;;
25435;SDS011;13363;52.772;-3.890;2023-07-13T08:02:47;2.90;;;1.13;;
25435;SDS011;13363;52.772;-3.890;2023-07-13T08:05:14;3.00;;;1.17;;
25435;SDS011;13363;52.772;-3.890;2023-07-13T08:07:40;2.50;;;1.57;;
25435;SDS011;13363;52.772;-3.890;2023-07-13T08:10:06;1.83;;;1.30;;
25435;SDS011;13363;52.772;-3.890;2023-07-13T08:12:37;1.87;;;1.20;;
25435;SDS011;13363;52.772;-3.890;2023-07-13T08:15:04;1.88;;;1.50;;
25435;SDS011;13363;52.772;-3.890;2023-07-13T08:17:31;3.22;;;1.52;;
25435;SDS011;13363;52.772;-3.890;2023-07-13T08:19:57;1.35;;;1.23;;
25435;SDS011;13363;52.772;-3.890;2023-07-13T08:22:23;3.83;;;1.63;;
25435;SDS011;13363;52.772;-3.890;2023-07-13T08:24:49;2.80;;;1.47;;
25435;SDS011;13363;52.772;-3.890;2023-07-13T08:27:21;1.40;;;1.30;;
25435;SDS011;13363;52.772;-3.890;2023-07-13T08:29:48;5.33;;;1.87;;
25435;SDS011;13363;52.772;-3.890;2023-07-13T08:32:14;3.17;;;1.43;;
25435;SDS011;13363;52.772;-3.890;2023-07-13T08:34:40;1.23;;;1.13;;
25435;SDS011;13363;52.772;-3.890;2023-07-13T08:37:06;4.20;;;2.30;;
25435;SDS011;13363;52.772;-3.890;2023-07-13T08:39:34;3.22;;;1.45;;
25435;SDS011;13363;52.772;-3.890;2023-07-13T08:42:04;5.13;;;1.40;;
25435;SDS011;13363;52.772;-3.890;2023-07-13T08:44:52;3.47;;;1.52;;
25435;SDS011;13363;52.772;-3.890;2023-07-13T08:47:25;2.63;;;1.50;;
25435;SDS011;13363;52.772;-3.890;2023-07-13T08:49:53;3.92;;;1.55;;
25435;SDS011;13363;52.772;-3.890;2023-07-13T08:52:28;1.30;;;1.20;;
25435;SDS011;13363;52.772;-3.890;2023-07-13T08:55:20;5.28;;;1.40;;
25435;SDS011;13363;52.772;-3.890;2023-07-13T08:57:59;3.95;;;1.77;;
25435;SDS011;13363;52.772;-3.890;2023-07-13T09:00:38;3.88;;;1.90;;
25435;SDS011;13363;52.772;-3.890;2023-07-13T09:03:33;3.33;;;1.60;;
25435;SDS011;13363;52.772;-3.890;2023-07-13T09:06:06;2.87;;;1.60;;
25435;SDS011;13363;52.772;-3.890;2023-07-13T09:08:59;3.67;;;1.60;;
25435;SDS011;13363;52.772;-3.890;2023-07-13T09:17:00;2.50;;;1.60;;
25435;SDS011;13363;52.772;-3.890;2023-07-13T09:19:35;4.43;;;1.60;;
25435;SDS011;13363;52.772;-3.890;2023-07-13T09:22:02;3.50;;;1.60;;
25435;SDS011;13363;52.772;-3.890;2023-07-13T09:24:50;3.70;;;1.40;;
25435;SDS011;13363;52.772;-3.890;2023-07-13T09:27:33;4.37;;;1.93;;
25435;SDS011;13363;52.772;-3.890;2023-07-13T09:32:39;4.33;;;1.60;;
25435;SDS011;13363;52.772;-3.890;2023-07-13T09:35:15;5.73;;;1.70;;
25435;SDS011;13363;52.772;-3.890;2023-07-13T09:37:46;2.77;;;1.67;;
25435;SDS011;13363;52.772;-3.890;2023-07-13T09:40:15;3.33;;;1.53;;
25435;SDS011;13363;52.772;-3.890;2023-07-13T09:42:55;1.50;;;1.40;;
25435;SDS011;13363;52.772;-3.890;2023-07-13T09:45:26;3.72;;;1.67;;
25435;SDS011;13363;52.772;-3.890;2023-07-13T09:48:03;3.60;;;1.20;;
25435;SDS011;13363;52.772;-3.890;2023-07-13T09:50:31;3.50;;;1.77;;
25435;SDS011;13363;52.772;-3.890;2023-07-13T09:52:57;3.40;;;1.33;;
25435;SDS011;13363;52.772;-3.890;2023-07-13T09:57:56;2.97;;;1.63;;
25435;SDS011;13363;52.772;-3.890;2023-07-13T10:00:29;4.45;;;1.35;;
25435;SDS011;13363;52.772;-3.890;2023-07-13T10:03:16;3.58;;;1.42;;
25435;SDS011;13363;52.772;-3.890;2023-07-13T10:05:48;4.10;;;1.80;;
25435;SDS011;13363;52.772;-3.890;2023-07-13T10:08:24;3.27;;;1.50;;
25435;SDS011;13363;52.772;-3.890;2023-07-13T10:11:39;3.30;;;1.50;;
25435;SDS011;13363;52.772;-3.890;2023-07-13T10:13:48;1.87;;;1.50;;
25435;SDS011;13363;52.772;-3.890;2023-07-13T10:16:22;8.70;;;1.77;;
25435;SDS011;13363;52.772;-3.890;2023-07-13T10:18:52;3.60;;;2.33;;
25435;SDS011;13363;52.772;-3.890;2023-07-13T10:21:26;6.85;;;1.83;;
25435;SDS011;13363;52.772;-3.890;2023-07-13T10:24:15;4.18;;;1.80;;
25435;SDS011;13363;52.772;-3.890;2023-07-13T10:27:28;4.20;;;1.50;;
25435;SDS011;13363;52.772;-3.890;2023-07-13T10:29:45;4.05;;;1.75;;
25435;SDS011;13363;52.772;-3.890;2023-07-13T10:32:21;5.07;;;1.83;;
25435;SDS011;13363;52.772;-3.890;2023-07-13T10:34:49;3.08;;;1.58;;
25435;SDS011;13363;52.772;-3.890;2023-07-13T10:37:27;2.70;;;1.50;;
25435;SDS011;13363;52.772;-3.890;2023-07-13T10:39:58;2.28;;;1.20;;
25435;SDS011;13363;52.772;-3.890;2023-07-13T10:42:44;4.65;;;1.95;;
25435;SDS011;13363;52.772;-3.890;2023-07-13T10:45:17;2.20;;;1.40;;
25435;SDS011;13363;52.772;-3.890;2023-07-13T10:47:45;3.63;;;1.40;;
25435;SDS011;13363;52.772;-3.890;2023-07-13T10:50:15;3.60;;;1.80;;
25435;SDS011;13363;52.772;-3.890;2023-07-13T10:52:49;6.03;;;2.13;;
25435;SDS011;13363;52.772;-3.890;2023-07-13T11:03:35;4.68;;;1.67;;
25435;SDS011;13363;52.772;-3.890;2023-07-13T11:06:11;4.25;;;1.75;;
25435;SDS011;13363;52.772;-3.890;2023-07-13T11:11:45;2.08;;;1.33;;
25435;SDS011;13363;52.772;-3.890;2023-07-13T11:14:28;1.63;;;1.25;;
25435;SDS011;13363;52.772;-3.890;2023-07-13T11:17:00;4.32;;;1.60;;
25435;SDS011;13363;52.772;-3.890;2023-07-13T11:22:48;3.05;;;1.60;;
25435;SDS011;13363;52.772;-3.890;2023-07-13T11:25:26;1.60;;;1.20;;
25435;SDS011;13363;52.772;-3.890;2023-07-13T11:30:39;1.45;;;1.25;;
25435;SDS011;13363;52.772;-3.890;2023-07-13T11:33:15;4.22;;;1.40;;
25435;SDS011;13363;52.772;-3.890;2023-07-13T11:35:49;2.22;;;1.40;;
25435;SDS011;13363;52.772;-3.890;2023-07-13T11:38:27;1.23;;;1.23;;
25435;SDS011;13363;52.772;-3.890;2023-07-13T11:41:19;1.50;;;1.40;;
25435;SDS011;13363;52.772;-3.890;2023-07-13T11:44:29;1.40;;;1.30;;
25435;SDS011;13363;52.772;-3.890;2023-07-13T11:46:53;2.20;;;1.40;;
25435;SDS011;13363;52.772;-3.890;2023-07-13T11:49:24;2.45;;;1.70;;
25435;SDS011;13363;52.772;-3.890;2023-07-13T11:51:52;1.35;;;1.20;;
25435;SDS011;13363;52.772;-3.890;2023-07-13T11:54:31;1.58;;;1.48;;
25435;SDS011;13363;52.772;-3.890;2023-07-13T11:57:05;3.10;;;1.92;;
25435;SDS011;13363;52.772;-3.890;2023-07-13T11:59:44;2.97;;;1.70;;
25435;SDS011;13363;52.772;-3.890;2023-07-13T12:02:44;1.83;;;1.73;;
25435;SDS011;13363;52.772;-3.890;2023-07-13T12:05:09;2.25;;;1.50;;
25435;SDS011;13363;52.772;-3.890;2023-07-13T12:07:38;2.63;;;1.73;;
25435;SDS011;13363;52.772;-3.890;2023-07-13T12:12:34;1.30;;;1.20;;
25435;SDS011;13363;52.772;-3.890;2023-07-13T12:15:11;1.90;;;1.77;;
25435;SDS011;13363;52.772;-3.890;2023-07-13T12:17:37;1.57;;;1.47;;
25435;SDS011;13363;52.772;-3.890;2023-07-13T12:20:07;1.43;;;1.33;;
25435;SDS011;13363;52.772;-3.890;2023-07-13T12:22:48;3.00;;;1.40;;
25435;SDS011;13363;52.772;-3.890;2023-07-13T12:25:15;2.00;;;1.60;;
25435;SDS011;13363;52.772;-3.890;2023-07-13T12:27:42;1.57;;;1.47;;
25435;SDS011;13363;52.772;-3.890;2023-07-13T12:35:51;2.07;;;1.80;;
25435;SDS011;13363;52.772;-3.890;2023-07-13T12:38:18;1.97;;;1.60;;
25435;SDS011;13363;52.772;-3.890;2023-07-13T12:40:48;2.77;;;1.67;;
25435;SDS011;13363;52.772;-3.890;2023-07-13T12:43:16;2.03;;;1.90;;
25435;SDS011;13363;52.772;-3.890;2023-07-13T12:48:41;1.50;;;1.40;;
25435;SDS011;13363;52.772;-3.890;2023-07-13T12:51:11;2.90;;;1.53;;
25435;SDS011;13363;52.772;-3.890;2023-07-13T12:53:40;1.60;;;1.50;;
25435;SDS011;13363;52.772;-3.890;2023-07-13T12:56:08;1.33;;;1.23;;
25435;SDS011;13363;52.772;-3.890;2023-07-13T12:58:46;1.67;;;1.60;;
25435;SDS011;13363;52.772;-3.890;2023-07-13T13:01:19;2.80;;;1.83;;
25435;SDS011;13363;52.772;-3.890;2023-07-13T13:03:49;3.07;;;1.93;;
25435;SDS011;13363;52.772;-3.890;2023-07-13T13:08:46;2.50;;;1.77;;
25435;SDS011;13363;52.772;-3.890;2023-07-13T13:11:17;5.00;;;1.67;;
25435;SDS011;13363;52.772;-3.890;2023-07-13T13:13:43;3.03;;;1.93;;
25435;SDS011;13363;52.772;-3.890;2023-07-13T13:16:13;2.03;;;1.83;;
25435;SDS011;13363;52.772;-3.890;2023-07-13T13:18:40;2.37;;;1.80;;
25435;SDS011;13363;52.772;-3.890;2023-07-13T13:21:06;2.70;;;1.67;;
25435;SDS011;13363;52.772;-3.890;2023-07-13T13:23:32;1.57;;;1.40;;
25435;SDS011;13363;52.772;-3.890;2023-07-13T13:25:58;1.40;;;1.30;;
25435;SDS011;13363;52.772;-3.890;2023-07-13T13:28:24;1.50;;;1.40;;
25435;SDS011;13363;52.772;-3.890;2023-07-13T13:30:50;1.53;;;1.43;;
25435;SDS011;13363;52.772;-3.890;2023-07-13T13:33:17;1.57;;;1.17;;
25435;SDS011;13363;52.772;-3.890;2023-07-13T13:35:46;1.73;;;1.40;;
25435;SDS011;13363;52.772;-3.890;2023-07-13T13:38:33;1.40;;;1.40;;
25435;SDS011;13363;52.772;-3.890;2023-07-13T13:41:05;1.90;;;1.53;;
25435;SDS011;13363;52.772;-3.890;2023-07-13T13:43:38;3.87;;;1.30;;
25435;SDS011;13363;52.772;-3.890;2023-07-13T13:46:13;2.10;;;1.43;;
25435;SDS011;13363;52.772;-3.890;2023-07-13T13:48:42;2.07;;;1.43;;
25435;SDS011;13363;52.772;-3.890;2023-07-13T13:51:26;3.43;;;1.70;;
25435;SDS011;13363;52.772;-3.890;2023-07-13T13:53:52;1.73;;;1.30;;
25435;SDS011;13363;52.772;-3.890;2023-07-13T13:56:19;1.80;;;1.70;;
25435;SDS011;13363;52.772;-3.890;2023-07-13T13:58:47;2.07;;;1.53;;
25435;SDS011;13363;52.772;-3.890;2023-07-13T14:01:18;4.40;;;1.80;;
25435;SDS011;13363;52.772;-3.890;2023-07-13T14:03:47;10.23;;;1.93;;
25435;SDS011;13363;52.772;-3.890;2023-07-13T14:06:19;1.97;;;1.77;;
25435;SDS011;13363;52.772;-3.890;2023-07-13T14:08:46;2.90;;;2.10;;
25435;SDS011;13363;52.772;-3.890;2023-07-13T14:11:15;4.83;;;2.00;;
25435;SDS011;13363;52.772;-3.890;2023-07-13T14:13:44;1.80;;;1.70;;
25435;SDS011;13363;52.772;-3.890;2023-07-13T14:16:16;2.33;;;1.57;;
25435;SDS011;13363;52.772;-3.890;2023-07-13T14:18:48;1.57;;;1.47;;
25435;SDS011;13363;52.772;-3.890;2023-07-13T14:21:15;2.90;;;2.07;;
25435;SDS011;13363;52.772;-3.890;2023-07-13T14:23:43;1.57;;;1.23;;
25435;SDS011;13363;52.772;-3.890;2023-07-13T14:26:11;2.10;;;1.90;;
25435;SDS011;13363;52.772;-3.890;2023-07-13T14:28:42;2.10;;;1.88;;
25435;SDS011;13363;52.772;-3.890;2023-07-13T14:31:12;2.22;;;2.03;;
25435;SDS011;13363;52.772;-3.890;2023-07-13T14:33:40;1.73;;;1.63;;
25435;SDS011;13363;52.772;-3.890;2023-07-13T14:36:48;2.87;;;2.00;;
25435;SDS011;13363;52.772;-3.890;2023-07-13T14:38:58;4.07;;;1.90;;
25435;SDS011;13363;52.772;-3.890;2023-07-13T14:41:26;1.67;;;1.57;;
25435;SDS011;13363;52.772;-3.890;2023-07-13T14:43:52;2.83;;;2.07;;
25435;SDS011;13363;52.772;-3.890;2023-07-13T14:46:30;2.20;;;1.90;;
25435;SDS011;13363;52.772;-3.890;2023-07-13T14:49:03;7.23;;;2.33;;
25435;SDS011;13363;52.772;-3.890;2023-07-13T14:51:50;4.30;;;2.40;;
25435;SDS011;13363;52.772;-3.890;2023-07-13T14:54:18;2.87;;;1.67;;
25435;SDS011;13363;52.772;-3.890;2023-07-13T14:56:45;5.43;;;1.63;;
25435;SDS011;13363;52.772;-3.890;2023-07-13T14:59:14;4.80;;;2.00;;
25435;SDS011;13363;52.772;-3.890;2023-07-13T15:01:43;5.27;;;1.70;;
25435;SDS011;13363;52.772;-3.890;2023-07-13T15:04:11;2.20;;;1.60;;
25435;SDS011;13363;52.772;-3.890;2023-07-13T15:06:53;4.70;;;2.00;;
25435;SDS011;13363;52.772;-3.890;2023-07-13T15:09:24;4.47;;;1.83;;
25435;SDS011;13363;52.772;-3.890;2023-07-13T15:11:57;1.90;;;1.80;;
25435;SDS011;13363;52.772;-3.890;2023-07-13T15:14:24;3.23;;;1.97;;
25435;SDS011;13363;52.772;-3.890;2023-07-13T15:16:51;4.13;;;1.53;;
25435;SDS011;13363;52.772;-3.890;2023-07-13T15:19:19;2.70;;;2.00;;
25435;SDS011;13363;52.772;-3.890;2023-07-13T15:21:48;2.93;;;2.10;;
25435;SDS011;13363;52.772;-3.890;2023-07-13T15:24:15;2.60;;;2.00;;
25435;SDS011;13363;52.772;-3.890;2023-07-13T15:26:41;3.53;;;1.40;;
25435;SDS011;13363;52.772;-3.890;2023-07-13T15:29:10;4.30;;;1.80;;